Time;durP1;ratioP1;P1;durP2;ratioP2;P2;SDS_P1;SDS_P2;PMS_P1;PMS_P2;Temp;Humidity;BMP_temperature;BMP_pressure;BME280_temperature;BME280_humidity;BME280_pressure;Samples;Min_cycle;Max_cycle;Signal;HPM_P1;HPM_P2
2021/12/18 00:00:48;;;;;;;;;;;7.50;99.90;;;;;;4982904;28;19925;-87
2021/12/18 00:03:16;;;;;;;;;;;7.50;99.90;;;;;;4999613;28;19932;-87
2021/12/18 00:05:44;;;;;;;;;;;7.50;99.90;;;;;;4999449;28;20040;-87
2021/12/18 00:08:10;;;;;;;;;;;7.50;99.90;;;;;;4998510;28;19925;-87
2021/12/18 00:10:36;;;;;;;;;;;7.50;99.90;;;;;;4983232;28;19925;-87
2021/12/18 00:13:01;;;;;;;;;;;7.40;99.90;;;;;;4982491;28;19925;-87
2021/12/18 00:15:30;;;;;;;;;;;7.40;99.90;;;;;;4999468;28;20000;-87
2021/12/18 00:17:58;;;;;;;;;;;7.40;99.90;;;;;;4998891;28;19925;-88
2021/12/18 00:20:26;;;;;;;;;;;7.40;99.90;;;;;;4999241;28;19925;-87
2021/12/18 00:22:54;;;;;;;;;;;7.30;99.90;;;;;;4999245;28;20351;-87
2021/12/18 00:25:21;;;;;;;;;;;7.30;99.90;;;;;;4979031;28;20012;-87
2021/12/18 00:27:47;;;;;;;;;;;7.30;99.90;;;;;;4979255;28;19926;-87
2021/12/18 00:30:15;;;;;;;;;;;7.30;99.90;;;;;;4996071;28;19932;-87
2021/12/18 00:32:44;;;;;;;;;;;7.30;99.90;;;;;;4978994;28;19932;-87
2021/12/18 00:35:09;;;;;;;;;;;7.30;99.90;;;;;;4996032;28;20016;-87
2021/12/18 00:37:37;;;;;;;;;;;7.30;99.90;;;;;;4979778;28;19976;-87
2021/12/18 00:40:08;;;;;;;;;;;7.20;99.90;;;;;;4978775;28;19984;-87
2021/12/18 00:42:46;;;;;;;;;;;7.20;99.90;;;;;;4996487;28;19934;-87
2021/12/18 00:45:14;;;;;;;;;;;7.20;99.90;;;;;;4981492;28;20372;-87
2021/12/18 00:47:43;;;;;;;;;;;7.10;99.90;;;;;;4979167;28;19977;-87
2021/12/18 00:50:09;;;;;;;;;;;7.10;99.90;;;;;;4979653;28;19925;-87
2021/12/18 00:52:35;;;;;;;;;;;7.10;99.90;;;;;;4995632;28;19925;-87
2021/12/18 00:55:01;;;;;;;;;;;7.10;99.90;;;;;;4978922;28;20267;-86
2021/12/18 00:57:26;;;;;;;;;;;7.10;99.90;;;;;;4979671;28;19925;-87
2021/12/18 00:59:54;;;;;;;;;;;7.10;99.90;;;;;;4979034;28;19992;-86
2021/12/18 01:02:20;;;;;;;;;;;7.10;99.90;;;;;;4995935;28;20320;-87
2021/12/18 01:04:45;;;;;;;;;;;7.00;99.90;;;;;;4979463;28;20028;-85
2021/12/18 01:07:11;;;;;;;;;;;7.00;99.90;;;;;;4979463;28;20329;-87
2021/12/18 01:12:31;;;;;;;;;;;7.00;99.90;;;;;;4952089;28;19930;-86
2021/12/18 01:15:11;;;;;;;;;;;7.00;99.90;;;;;;4980857;28;19929;-86
2021/12/18 01:23:07;;;;;;;;;;;7.00;99.90;;;;;;4998927;28;19934;-87
2021/12/18 01:25:33;;;;;;;;;;;7.00;99.90;;;;;;5015633;28;19930;-86
2021/12/18 01:27:58;;;;;;;;;;;7.00;99.90;;;;;;4982327;28;19933;-88
2021/12/18 01:30:24;;;;;;;;;;;7.00;99.90;;;;;;4983003;28;19925;-87
2021/12/18 01:32:50;;;;;;;;;;;7.00;99.90;;;;;;4998808;28;19925;-86
2021/12/18 01:35:18;;;;;;;;;;;7.00;99.90;;;;;;4982982;28;19926;-87
2021/12/18 01:37:46;;;;;;;;;;;7.00;99.90;;;;;;5016306;28;20349;-87
2021/12/18 01:40:12;;;;;;;;;;;7.00;99.90;;;;;;4982158;28;19929;-87
2021/12/18 01:45:19;;;;;;;;;;;6.90;99.90;;;;;;4998666;28;20012;-87
2021/12/18 01:53:18;;;;;;;;;;;6.90;99.90;;;;;;5000958;28;20370;-87
2021/12/18 01:55:44;;;;;;;;;;;6.90;99.90;;;;;;4998604;28;19926;-87
2021/12/18 01:58:09;;;;;;;;;;;7.00;99.90;;;;;;4998142;28;19925;-87
2021/12/18 02:00:36;;;;;;;;;;;6.90;99.90;;;;;;4982339;28;19932;-87
2021/12/18 02:03:05;;;;;;;;;;;6.90;99.90;;;;;;4981956;28;19936;-87
2021/12/18 02:05:30;;;;;;;;;;;6.90;99.90;;;;;;4982703;28;19933;-87
2021/12/18 02:07:56;;;;;;;;;;;6.90;99.90;;;;;;5014057;28;19925;-87
2021/12/18 02:10:25;;;;;;;;;;;7.00;99.90;;;;;;4981956;28;20393;-87
2021/12/18 02:20:46;;;;;;;;;;;6.90;99.90;;;;;;5000711;28;19926;-86
2021/12/18 02:23:15;;;;;;;;;;;6.80;99.90;;;;;;4982096;28;20023;-87
2021/12/18 02:25:42;;;;;;;;;;;6.80;99.90;;;;;;4965774;28;19933;-87
2021/12/18 02:28:14;;;;;;;;;;;6.80;99.90;;;;;;4965138;28;20293;-87
2021/12/18 02:30:40;;;;;;;;;;;6.80;99.90;;;;;;4982806;28;19925;-87
2021/12/18 02:33:05;;;;;;;;;;;6.80;99.90;;;;;;4980675;28;19972;-86
2021/12/18 02:35:38;;;;;;;;;;;6.70;99.90;;;;;;4981656;28;19933;-87
2021/12/18 02:38:11;;;;;;;;;;;6.70;99.90;;;;;;4981625;28;19925;-86
2021/12/18 02:43:30;;;;;;;;;;;6.70;99.90;;;;;;5017036;28;20405;-87
2021/12/18 02:45:59;;;;;;;;;;;6.70;99.90;;;;;;5001127;28;19963;-87
2021/12/18 02:48:26;;;;;;;;;;;6.70;99.90;;;;;;4984834;28;19931;-87
2021/12/18 02:50:51;;;;;;;;;;;6.60;99.90;;;;;;5000776;28;19925;-87
2021/12/18 02:53:17;;;;;;;;;;;6.60;99.90;;;;;;5016540;28;20335;-87
2021/12/18 02:55:42;;;;;;;;;;;6.70;99.90;;;;;;5000920;28;19925;-87
2021/12/18 02:58:08;;;;;;;;;;;6.70;99.90;;;;;;5015890;28;20292;-87
2021/12/18 03:00:33;;;;;;;;;;;6.60;99.90;;;;;;5000682;28;20273;-86
2021/12/18 03:03:05;;;;;;;;;;;6.70;99.90;;;;;;5000645;28;19929;-87
2021/12/18 03:05:37;;;;;;;;;;;6.70;99.90;;;;;;5017756;28;20259;-87
2021/12/18 03:08:11;;;;;;;;;;;6.70;99.90;;;;;;5016502;28;20336;-86
2021/12/18 03:20:17;;;;;;;;;;;6.80;99.90;;;;;;5002823;28;19925;-87
2021/12/18 03:25:01;;;;;;;;;;;6.80;99.90;;;;;;4956881;28;20111;-86
2021/12/18 03:27:27;;;;;;;;;;;6.70;99.90;;;;;;4937378;29;19934;-87
2021/12/18 03:29:52;;;;;;;;;;;6.70;99.90;;;;;;4978629;28;19929;-87
2021/12/18 03:32:18;;;;;;;;;;;6.70;99.90;;;;;;4995815;28;19925;-86
2021/12/18 03:34:44;;;;;;;;;;;6.70;99.90;;;;;;4980631;28;19926;-86
2021/12/18 03:37:09;;;;;;;;;;;6.70;99.90;;;;;;4980265;28;19925;-86
2021/12/18 03:39:35;;;;;;;;;;;6.80;99.90;;;;;;4979742;28;20004;-87
2021/12/18 03:42:01;;;;;;;;;;;6.70;99.90;;;;;;4980424;28;19956;-86
2021/12/18 03:44:27;;;;;;;;;;;6.70;99.90;;;;;;4979251;28;20259;-87
2021/12/18 03:46:52;;;;;;;;;;;6.70;99.90;;;;;;4980275;28;19925;-87
2021/12/18 03:49:18;;;;;;;;;;;6.70;99.90;;;;;;4980204;28;19925;-87
2021/12/18 03:51:44;;;;;;;;;;;6.70;99.90;;;;;;4980395;28;19981;-87
2021/12/18 03:54:11;;;;;;;;;;;6.70;99.90;;;;;;5012409;28;20286;-86
2021/12/18 03:56:37;;;;;;;;;;;6.80;99.90;;;;;;4980548;28;20341;-87
2021/12/18 03:59:02;;;;;;;;;;;6.70;99.90;;;;;;4996527;28;19979;-86
2021/12/18 04:01:28;;;;;;;;;;;6.60;99.90;;;;;;5012218;28;19925;-87
2021/12/18 04:03:54;;;;;;;;;;;6.70;99.90;;;;;;5012392;28;19925;-87
2021/12/18 04:06:19;;;;;;;;;;;6.70;99.90;;;;;;4996129;28;19976;-87
2021/12/18 04:08:45;;;;;;;;;;;6.70;99.90;;;;;;5012244;28;20032;-86
2021/12/18 04:11:10;;;;;;;;;;;6.70;99.90;;;;;;5012224;28;19971;-86
2021/12/18 04:13:36;;;;;;;;;;;6.60;99.90;;;;;;4996015;28;19925;-87
2021/12/18 04:16:02;;;;;;;;;;;6.60;99.90;;;;;;4996163;28;20428;-87
2021/12/18 04:18:28;;;;;;;;;;;6.60;99.90;;;;;;4979321;28;20068;-87
2021/12/18 04:20:56;;;;;;;;;;;6.60;99.90;;;;;;4979853;28;20009;-86
2021/12/18 04:23:21;;;;;;;;;;;6.70;99.90;;;;;;4982464;28;19929;-87
2021/12/18 04:25:49;;;;;;;;;;;6.70;99.90;;;;;;4979821;28;19931;-88
2021/12/18 04:28:18;;;;;;;;;;;6.70;99.90;;;;;;4964443;28;19969;-87
2021/12/18 04:30:44;;;;;;;;;;;6.60;99.90;;;;;;4982129;28;19926;-87
2021/12/18 04:33:19;;;;;;;;;;;6.70;99.90;;;;;;4980953;28;19932;-91
2021/12/18 04:35:47;;;;;;;;;;;6.60;99.90;;;;;;4977290;28;20278;-92
2021/12/18 04:38:18;;;;;;;;;;;6.60;99.90;;;;;;4976625;28;19926;-90
2021/12/18 04:40:59;;;;;;;;;;;6.60;99.90;;;;;;4976344;28;19926;-93
2021/12/18 04:43:44;;;;;;;;;;;6.70;99.90;;;;;;4980971;28;19925;-92
2021/12/18 04:46:10;;;;;;;;;;;6.70;99.90;;;;;;4964460;28;20016;-91
2021/12/18 04:48:53;;;;;;;;;;;6.70;99.90;;;;;;4995785;28;19979;-92
2021/12/18 04:51:18;;;;;;;;;;;6.70;99.90;;;;;;4965486;28;19933;-92
2021/12/18 04:53:57;;;;;;;;;;;6.70;99.90;;;;;;4963958;28;19930;-94
2021/12/18 04:56:46;;;;;;;;;;;6.70;99.90;;;;;;4984941;28;20339;-94
2021/12/18 04:59:43;;;;;;;;;;;6.80;99.90;;;;;;4986292;28;19991;-91
2021/12/18 05:02:21;;;;;;;;;;;6.80;99.90;;;;;;4986353;28;19936;-91
2021/12/18 05:04:52;;;;;;;;;;;6.80;99.90;;;;;;5000528;28;19980;-92
2021/12/18 05:07:21;;;;;;;;;;;6.80;99.90;;;;;;4984569;28;19929;-93
2021/12/18 05:09:52;;;;;;;;;;;6.80;99.90;;;;;;4983840;28;20429;-93
2021/12/18 05:12:55;;;;;;;;;;;6.90;99.90;;;;;;4983464;28;19965;-90
2021/12/18 05:15:31;;;;;;;;;;;6.90;99.90;;;;;;4999773;28;19948;-92
2021/12/18 05:17:57;;;;;;;;;;;6.90;99.90;;;;;;4984154;28;20012;-93
2021/12/18 05:20:25;;;;;;;;;;;6.90;99.90;;;;;;4983299;28;19981;-90
2021/12/18 05:22:50;;;;;;;;;;;6.90;99.90;;;;;;4967145;28;19933;-90
2021/12/18 05:25:21;;;;;;;;;;;7.00;99.90;;;;;;4983029;28;19992;-90
2021/12/18 05:27:57;;;;;;;;;;;6.90;99.90;;;;;;4968517;28;19932;-95
2021/12/18 05:30:30;;;;;;;;;;;7.00;99.90;;;;;;4973256;28;19940;-93
2021/12/18 05:32:56;;;;;;;;;;;7.00;99.90;;;;;;5004281;28;19947;-95
2021/12/18 05:35:31;;;;;;;;;;;6.90;99.90;;;;;;4987930;28;20015;-96
2021/12/18 05:38:13;;;;;;;;;;;7.00;99.90;;;;;;4991012;28;20016;-96
2021/12/18 05:40:41;;;;;;;;;;;7.00;99.90;;;;;;5003621;28;19968;-92
2021/12/18 05:43:15;;;;;;;;;;;7.00;99.90;;;;;;4987694;28;20393;-94
2021/12/18 05:48:29;;;;;;;;;;;7.00;99.90;;;;;;5005352;28;19925;-92
2021/12/18 05:50:54;;;;;;;;;;;7.00;99.90;;;;;;5004329;28;19932;-90
2021/12/18 05:53:25;;;;;;;;;;;7.00;99.90;;;;;;4986634;28;19925;-94
2021/12/18 05:56:00;;;;;;;;;;;7.00;99.90;;;;;;4987671;28;19925;-91
2021/12/18 05:58:41;;;;;;;;;;;7.10;99.90;;;;;;4994868;28;19925;-89
2021/12/18 06:01:19;;;;;;;;;;;;;;;;;;;;;
2021/12/18 06:09:22;;;;;;;;;;;7.10;99.90;;;;;;5222391;23;19925;-91
2021/12/18 06:11:50;;;;;;;;;;;7.20;99.90;;;;;;4997187;28;20067;-92
2021/12/18 06:14:24;;;;;;;;;;;7.10;99.90;;;;;;4990782;28;19971;-93
2021/12/18 06:16:50;;;;;;;;;;;7.10;99.90;;;;;;4983066;28;20404;-93
2021/12/18 06:19:28;;;;;;;;;;;;;;;;;;;;;
2021/12/18 06:21:59;;;;;;;;;;;7.20;99.90;;;;;;4990030;28;20286;-87
2021/12/18 06:24:26;;;;;;;;;;;7.20;99.90;;;;;;4982080;28;19973;-88
2021/12/18 06:26:56;;;;;;;;;;;7.20;99.90;;;;;;4950219;28;19926;-87
2021/12/18 06:29:25;;;;;;;;;;;7.20;99.90;;;;;;4978661;28;20012;-89
2021/12/18 06:31:50;;;;;;;;;;;7.20;99.90;;;;;;4979966;28;19968;-87
2021/12/18 06:34:18;;;;;;;;;;;7.30;99.90;;;;;;4978006;28;19973;-87
2021/12/18 06:36:51;;;;;;;;;;;7.20;99.90;;;;;;4978005;28;19984;-87
2021/12/18 06:39:19;;;;;;;;;;;7.30;99.90;;;;;;4986934;28;19948;-87
2021/12/18 06:41:45;;;;;;;;;;;7.30;99.90;;;;;;4980465;28;20374;-87
2021/12/18 06:44:10;;;;;;;;;;;7.30;99.90;;;;;;4965092;28;20021;-87
2021/12/18 06:46:43;;;;;;;;;;;7.30;99.90;;;;;;4981153;28;20067;-87
2021/12/18 06:49:14;;;;;;;;;;;7.30;99.90;;;;;;4982545;28;19977;-87
2021/12/18 06:51:40;;;;;;;;;;;7.40;99.90;;;;;;4981607;28;19926;-87
2021/12/18 06:54:06;;;;;;;;;;;7.40;99.90;;;;;;4960387;28;19926;-86
2021/12/18 06:56:36;;;;;;;;;;;7.40;99.90;;;;;;4965328;28;19968;-88
2021/12/18 06:59:02;;;;;;;;;;;7.40;99.90;;;;;;4964979;28;19980;-87
2021/12/18 07:01:33;;;;;;;;;;;7.40;99.90;;;;;;4997310;28;20362;-92
2021/12/18 07:03:59;;;;;;;;;;;7.50;99.90;;;;;;4981464;28;19926;-88
2021/12/18 07:06:24;;;;;;;;;;;7.40;99.90;;;;;;4964894;28;19933;-88
2021/12/18 07:08:52;;;;;;;;;;;7.50;99.90;;;;;;4963800;28;20008;-88
2021/12/18 07:11:20;;;;;;;;;;;7.50;99.90;;;;;;4980838;28;19935;-88
2021/12/18 07:13:48;;;;;;;;;;;7.50;99.90;;;;;;4964026;28;19965;-88
2021/12/18 07:16:14;;;;;;;;;;;7.50;99.90;;;;;;4964720;28;19933;-88
2021/12/18 07:18:40;;;;;;;;;;;7.50;99.90;;;;;;4962649;28;20065;-87
2021/12/18 07:21:08;;;;;;;;;;;7.50;99.90;;;;;;4964624;28;19952;-87
2021/12/18 07:23:33;;;;;;;;;;;7.50;99.90;;;;;;4975121;28;20342;-87
2021/12/18 07:26:02;;;;;;;;;;;7.50;99.90;;;;;;4955223;28;19972;-87
2021/12/18 07:28:27;;;;;;;;;;;7.50;99.90;;;;;;4996471;28;19925;-88
2021/12/18 07:30:53;;;;;;;;;;;7.50;99.90;;;;;;4979396;28;20149;-88
2021/12/18 07:33:19;;;;;;;;;;;7.60;99.90;;;;;;4980104;28;19941;-88
2021/12/18 07:35:44;;;;;;;;;;;7.60;99.90;;;;;;4980134;28;19976;-88
2021/12/18 07:38:11;;;;;;;;;;;7.60;99.90;;;;;;4980539;28;19926;-88
2021/12/18 07:40:39;;;;;;;;;;;7.60;99.90;;;;;;4959507;28;20016;-89
2021/12/18 07:43:05;;;;;;;;;;;7.60;99.90;;;;;;4972976;28;19925;-88
2021/12/18 07:45:34;;;;;;;;;;;7.60;99.90;;;;;;4992926;28;19937;-88
2021/12/18 07:48:02;;;;;;;;;;;7.60;99.90;;;;;;4945010;28;20293;-88
2021/12/18 07:50:31;;;;;;;;;;;7.60;99.90;;;;;;4980415;28;19925;-88
2021/12/18 07:53:02;;;;;;;;;;;7.60;99.90;;;;;;4979101;28;19933;-88
2021/12/18 07:55:35;;;;;;;;;;;7.70;99.90;;;;;;4979895;28;19930;-88
2021/12/18 07:58:01;;;;;;;;;;;7.60;99.90;;;;;;4962053;28;20005;-87
2021/12/18 08:00:32;;;;;;;;;;;7.60;99.90;;;;;;4960114;28;19965;-88
2021/12/18 08:03:03;;;;;;;;;;;7.70;99.90;;;;;;4949272;28;20145;-88
2021/12/18 08:05:28;;;;;;;;;;;7.70;99.90;;;;;;4948333;28;19926;-89
2021/12/18 08:07:54;;;;;;;;;;;7.70;99.90;;;;;;4954406;28;20412;-88
2021/12/18 08:10:30;;;;;;;;;;;7.60;99.90;;;;;;4948248;28;19934;-88
2021/12/18 08:12:58;;;;;;;;;;;7.70;99.90;;;;;;4951507;28;19925;-88
2021/12/18 08:15:26;;;;;;;;;;;7.80;99.90;;;;;;4976143;28;19973;-88
2021/12/18 08:17:51;;;;;;;;;;;7.70;99.90;;;;;;4967098;28;20388;-88
2021/12/18 08:20:19;;;;;;;;;;;7.80;99.90;;;;;;4964792;28;19968;-88
2021/12/18 08:22:45;;;;;;;;;;;7.80;99.90;;;;;;4983320;28;19926;-87
2021/12/18 08:25:13;;;;;;;;;;;7.80;99.90;;;;;;4969282;28;20281;-88
2021/12/18 08:27:39;;;;;;;;;;;7.90;99.90;;;;;;4978613;28;20025;-86
2021/12/18 08:30:08;;;;;;;;;;;7.90;99.90;;;;;;4977377;28;20389;-87
2021/12/18 08:32:33;;;;;;;;;;;7.90;99.90;;;;;;4994622;28;19934;-87
2021/12/18 08:35:01;;;;;;;;;;;7.90;99.90;;;;;;4978222;28;19930;-87
2021/12/18 08:37:27;;;;;;;;;;;7.90;99.90;;;;;;4979154;28;19926;-87
2021/12/18 08:40:03;;;;;;;;;;;;;;;;;;;;;
2021/12/18 08:42:28;;;;;;;;;;;8.00;99.90;;;;;;4995950;28;19925;-88
2021/12/18 08:44:54;;;;;;;;;;;8.00;99.90;;;;;;4979323;28;19937;-88
2021/12/18 08:47:22;;;;;;;;;;;8.00;99.90;;;;;;4979841;28;19926;-88
2021/12/18 08:49:50;;;;;;;;;;;8.00;99.90;;;;;;4979270;28;20259;-87
2021/12/18 08:52:16;;;;;;;;;;;8.00;99.90;;;;;;4995788;28;20444;-88
2021/12/18 08:54:41;;;;;;;;;;;8.00;99.90;;;;;;4979236;28;20017;-88
2021/12/18 08:57:07;;;;;;;;;;;8.00;99.90;;;;;;4995393;28;19931;-87
2021/12/18 08:59:33;;;;;;;;;;;8.10;99.90;;;;;;4979657;28;19930;-88
2021/12/18 09:01:58;;;;;;;;;;;8.10;99.90;;;;;;4979273;28;20028;-88
2021/12/18 09:04:24;;;;;;;;;;;8.20;99.90;;;;;;4995644;28;19975;-88
2021/12/18 09:06:49;;;;;;;;;;;8.10;99.90;;;;;;4995344;28;19940;-87
2021/12/18 09:09:15;;;;;;;;;;;8.10;99.90;;;;;;4995275;28;20338;-88
2021/12/18 09:11:41;;;;;;;;;;;8.20;99.90;;;;;;4995715;28;19925;-88
2021/12/18 09:14:09;;;;;;;;;;;8.20;99.90;;;;;;4994848;28;19936;-88
2021/12/18 09:16:34;;;;;;;;;;;8.20;99.90;;;;;;4979432;28;19936;-88
2021/12/18 09:19:00;;;;;;;;;;;8.20;99.90;;;;;;4995208;28;19926;-88
2021/12/18 09:21:36;;;;;;;;;;;8.30;99.90;;;;;;4995642;28;20016;-88
2021/12/18 09:24:02;;;;;;;;;;;8.30;99.90;;;;;;4978983;28;19926;-87
2021/12/18 09:26:34;;;;;;;;;;;8.30;99.90;;;;;;4995652;28;19983;-89
2021/12/18 09:29:05;;;;;;;;;;;8.40;99.90;;;;;;4995326;28;20375;-88
2021/12/18 09:31:33;;;;;;;;;;;8.40;99.90;;;;;;4979555;28;19948;-88
2021/12/18 09:34:01;;;;;;;;;;;8.30;99.90;;;;;;4978572;28;19953;-88
2021/12/18 09:36:27;;;;;;;;;;;8.40;99.90;;;;;;4995592;28;19926;-88
2021/12/18 09:38:52;;;;;;;;;;;8.50;99.90;;;;;;4978467;28;20374;-87
2021/12/18 09:41:20;;;;;;;;;;;8.50;99.90;;;;;;4979233;28;19925;-88
2021/12/18 09:43:47;;;;;;;;;;;8.50;99.90;;;;;;4998992;28;19925;-88
2021/12/18 09:46:13;;;;;;;;;;;8.50;99.90;;;;;;4982388;28;20397;-88
2021/12/18 09:48:40;;;;;;;;;;;8.50;99.90;;;;;;4998977;28;19925;-88
2021/12/18 09:51:12;;;;;;;;;;;8.50;99.90;;;;;;4981853;28;20284;-88
2021/12/18 09:53:42;;;;;;;;;;;8.60;99.90;;;;;;4998682;28;20407;-88
2021/12/18 09:56:11;;;;;;;;;;;8.60;99.90;;;;;;4998414;28;19925;-88
2021/12/18 09:58:36;;;;;;;;;;;8.60;99.90;;;;;;4998885;28;20026;-88
2021/12/18 10:01:02;;;;;;;;;;;8.60;99.90;;;;;;4982127;28;19925;-87
2021/12/18 10:03:49;;;;;;;;;;;8.60;99.90;;;;;;4998907;28;19925;-88
2021/12/18 10:06:35;;;;;;;;;;;8.60;99.90;;;;;;4998134;28;19929;-88
2021/12/18 10:09:10;;;;;;;;;;;8.60;99.90;;;;;;4997941;28;19926;-89
2021/12/18 10:11:49;;;;;;;;;;;8.60;99.90;;;;;;4982350;28;20012;-88
2021/12/18 10:14:18;;;;;;;;;;;8.60;99.90;;;;;;4981436;28;19940;-88
2021/12/18 10:16:52;;;;;;;;;;;8.60;99.90;;;;;;4998163;28;19925;-88
2021/12/18 10:19:36;;;;;;;;;;;8.60;99.90;;;;;;4981515;28;19932;-88
2021/12/18 10:22:03;;;;;;;;;;;8.60;99.90;;;;;;4997475;28;20271;-87
2021/12/18 10:24:36;;;;;;;;;;;8.60;99.90;;;;;;4982194;28;19929;-88
2021/12/18 10:27:17;;;;;;;;;;;8.60;99.90;;;;;;4997994;28;20392;-87
2021/12/18 10:29:48;;;;;;;;;;;8.60;99.90;;;;;;4998251;28;19975;-88
2021/12/18 10:32:20;;;;;;;;;;;8.60;99.90;;;;;;4981420;28;19929;-87
2021/12/18 10:34:55;;;;;;;;;;;8.60;99.90;;;;;;4997790;28;19933;-88
2021/12/18 10:37:27;;;;;;;;;;;8.60;99.90;;;;;;4980974;28;20425;-88
2021/12/18 10:39:56;;;;;;;;;;;8.60;99.90;;;;;;4981536;28;19925;-89
2021/12/18 10:42:29;;;;;;;;;;;8.60;99.90;;;;;;4997756;28;20404;-88
2021/12/18 10:44:57;;;;;;;;;;;8.50;99.90;;;;;;4997903;28;19929;-88
2021/12/18 10:47:22;;;;;;;;;;;8.50;99.90;;;;;;4981295;28;19925;-88
2021/12/18 10:49:50;;;;;;;;;;;8.50;99.90;;;;;;4997828;28;19986;-88
2021/12/18 10:52:34;;;;;;;;;;;8.50;99.90;;;;;;4997327;28;19983;-88
2021/12/18 10:55:06;;;;;;;;;;;8.50;99.90;;;;;;4997061;28;19925;-87
2021/12/18 10:57:34;;;;;;;;;;;8.50;99.90;;;;;;4981349;28;19926;-89
2021/12/18 11:00:00;;;;;;;;;;;8.50;99.90;;;;;;4997509;28;20012;-87
2021/12/18 11:02:33;;;;;;;;;;;8.50;99.90;;;;;;4981446;28;19995;-88
2021/12/18 11:05:15;;;;;;;;;;;8.50;99.90;;;;;;4981253;28;19975;-88
2021/12/18 11:07:46;;;;;;;;;;;8.50;99.90;;;;;;4997506;28;19926;-88
2021/12/18 11:10:40;;;;;;;;;;;8.50;99.90;;;;;;4980723;28;20458;-90
2021/12/18 11:15:50;;;;;;;;;;;8.60;99.90;;;;;;4997131;28;20378;-88
2021/12/18 11:18:18;;;;;;;;;;;8.60;99.90;;;;;;4980658;28;19933;-88
2021/12/18 11:20:46;;;;;;;;;;;8.60;99.90;;;;;;4997117;28;19929;-89
2021/12/18 11:23:11;;;;;;;;;;;8.60;99.90;;;;;;4980689;28;19932;-90
2021/12/18 11:25:39;;;;;;;;;;;8.60;99.90;;;;;;4981133;28;20358;-91
2021/12/18 11:28:05;;;;;;;;;;;8.60;99.90;;;;;;4980624;28;20012;-91
2021/12/18 11:30:33;;;;;;;;;;;8.60;99.90;;;;;;4980817;28;19973;-90
2021/12/18 11:32:59;;;;;;;;;;;8.70;99.90;;;;;;4980462;28;19925;-91
2021/12/18 11:35:24;;;;;;;;;;;8.70;99.90;;;;;;4980659;28;19980;-86
2021/12/18 11:37:59;;;;;;;;;;;8.70;99.90;;;;;;4996912;28;20285;-88
2021/12/18 11:40:28;;;;;;;;;;;8.80;99.90;;;;;;4980361;28;20230;-89
2021/12/18 11:42:53;;;;;;;;;;;8.80;99.90;;;;;;4996521;28;20381;-88
2021/12/18 11:45:21;;;;;;;;;;;8.70;99.90;;;;;;4980182;28;19925;-87
2021/12/18 11:47:56;;;;;;;;;;;8.80;99.90;;;;;;4996282;28;20297;-88
2021/12/18 11:50:32;;;;;;;;;;;8.80;99.90;;;;;;4996376;28;19926;-89
2021/12/18 11:53:07;;;;;;;;;;;8.90;99.90;;;;;;4980372;28;19925;-87
2021/12/18 11:55:34;;;;;;;;;;;8.90;99.90;;;;;;4980474;28;19929;-87
2021/12/18 11:58:00;;;;;;;;;;;8.90;99.90;;;;;;4996571;28;20048;-86
2021/12/18 12:00:47;;;;;;;;;;;8.90;99.90;;;;;;4996027;28;19932;-86
2021/12/18 12:03:25;;;;;;;;;;;8.90;99.90;;;;;;4979896;28;19925;-86
2021/12/18 12:06:19;;;;;;;;;;;8.90;99.90;;;;;;4979716;28;19932;-87
2021/12/18 12:08:52;;;;;;;;;;;8.90;99.90;;;;;;4988617;28;20336;-87
2021/12/18 12:11:21;;;;;;;;;;;8.90;99.90;;;;;;4995878;28;20377;-88
2021/12/18 12:13:55;;;;;;;;;;;8.90;99.90;;;;;;4995742;28;19925;-88
2021/12/18 12:16:42;;;;;;;;;;;8.90;99.90;;;;;;4995794;28;20385;-88
2021/12/18 12:19:10;;;;;;;;;;;8.90;99.90;;;;;;4979986;28;20341;-88
2021/12/18 12:21:51;;;;;;;;;;;8.90;99.90;;;;;;4996174;28;19926;-87
2021/12/18 12:24:24;;;;;;;;;;;8.90;99.90;;;;;;4995376;28;19995;-87
2021/12/18 12:26:50;;;;;;;;;;;8.90;99.90;;;;;;4996247;28;19926;-89
2021/12/18 12:29:20;;;;;;;;;;;8.90;99.90;;;;;;4979787;28;19932;-87
2021/12/18 12:31:59;;;;;;;;;;;8.90;99.90;;;;;;4996240;28;19925;-87
2021/12/18 12:34:25;;;;;;;;;;;8.90;99.90;;;;;;4995330;28;20297;-87
2021/12/18 12:36:57;;;;;;;;;;;8.90;99.90;;;;;;4995955;28;19941;-87
2021/12/18 12:39:28;;;;;;;;;;;8.90;99.90;;;;;;4979555;28;19932;-88
2021/12/18 12:42:19;;;;;;;;;;;8.90;99.90;;;;;;4980380;28;19976;-94
2021/12/18 12:44:59;;;;;;;;;;;8.90;99.90;;;;;;4996066;28;19926;-92
2021/12/18 12:47:27;;;;;;;;;;;8.90;99.90;;;;;;4981026;28;19933;-86
2021/12/18 12:52:53;;;;;;;;;;;8.90;99.90;;;;;;4987601;28;19933;-87
2021/12/18 12:55:24;;;;;;;;;;;8.90;99.90;;;;;;4995377;28;20318;-89
2021/12/18 12:57:55;;;;;;;;;;;8.90;99.90;;;;;;4979716;28;19932;-90
2021/12/18 13:00:26;;;;;;;;;;;8.90;99.90;;;;;;4995437;28;20012;-88
2021/12/18 13:02:51;;;;;;;;;;;8.90;99.90;;;;;;4979535;28;19980;-88
2021/12/18 13:05:20;;;;;;;;;;;8.90;99.90;;;;;;4979316;28;19948;-87
2021/12/18 13:07:50;;;;;;;;;;;8.80;99.90;;;;;;4979517;28;19925;-88
2021/12/18 13:10:26;;;;;;;;;;;8.90;99.90;;;;;;4978973;28;19955;-89
2021/12/18 13:13:03;;;;;;;;;;;8.90;99.90;;;;;;4995041;28;19969;-88
2021/12/18 13:15:46;;;;;;;;;;;8.90;99.90;;;;;;4995249;28;19932;-89
2021/12/18 13:18:15;;;;;;;;;;;8.80;99.90;;;;;;4982538;28;19925;-88
2021/12/18 13:20:55;;;;;;;;;;;8.90;99.90;;;;;;4982811;28;19926;-89
2021/12/18 13:23:47;;;;;;;;;;;8.90;99.90;;;;;;4982420;28;19925;-88
2021/12/18 13:26:29;;;;;;;;;;;;;;;;;;;;;
2021/12/18 13:29:02;;;;;;;;;;;8.90;99.90;;;;;;4999088;28;19926;-89
2021/12/18 13:31:33;;;;;;;;;;;8.80;99.90;;;;;;4982476;28;19925;-90
2021/12/18 13:34:03;;;;;;;;;;;8.80;99.90;;;;;;4998993;28;19925;-90
2021/12/18 13:36:48;;;;;;;;;;;8.80;99.90;;;;;;4998853;28;19925;-88
2021/12/18 13:39:17;;;;;;;;;;;8.80;99.90;;;;;;4982872;28;20399;-87
2021/12/18 13:41:57;;;;;;;;;;;8.80;99.90;;;;;;4983392;28;19929;-91
2021/12/18 13:44:37;;;;;;;;;;;8.80;99.90;;;;;;4982493;28;20360;-90
2021/12/18 13:47:31;;;;;;;;;;;;;;;;;;;;;
2021/12/18 13:50:19;;;;;;;;;;;8.80;99.90;;;;;;4998982;28;20013;-90
2021/12/18 13:52:46;;;;;;;;;;;8.80;99.90;;;;;;4982288;28;20285;-92
2021/12/18 13:55:57;;;;;;;;;;;8.80;99.90;;;;;;4983368;28;20345;-92
2021/12/18 13:58:47;;;;;;;;;;;8.80;99.90;;;;;;4999153;28;19926;-93
2021/12/18 14:01:22;;;;;;;;;;;8.70;99.90;;;;;;4998775;28;19980;-91
2021/12/18 14:03:52;;;;;;;;;;;8.80;99.90;;;;;;4999150;28;19925;-92
2021/12/18 14:06:41;;;;;;;;;;;8.70;99.90;;;;;;4982125;28;19926;-92
2021/12/18 14:09:13;;;;;;;;;;;8.70;99.90;;;;;;4982318;28;19925;-91
2021/12/18 14:12:05;;;;;;;;;;;8.70;99.90;;;;;;4982477;28;19925;-91
2021/12/18 14:14:45;;;;;;;;;;;8.70;99.90;;;;;;4979919;28;19930;-88
2021/12/18 14:17:17;;;;;;;;;;;8.70;99.90;;;;;;4981891;28;19933;-88
2021/12/18 14:20:09;;;;;;;;;;;8.70;99.90;;;;;;4982029;28;19936;-89
2021/12/18 14:22:43;;;;;;;;;;;8.60;99.90;;;;;;4997264;28;20279;-90
2021/12/18 14:25:24;;;;;;;;;;;8.60;99.90;;;;;;4983102;28;19972;-93
2021/12/18 14:28:02;;;;;;;;;;;8.60;99.90;;;;;;4982596;28;20274;-88
2021/12/18 14:33:51;;;;;;;;;;;8.60;99.90;;;;;;4997609;28;19930;-88
2021/12/18 14:36:48;;;;;;;;;;;;;;;;;;;;;
2021/12/18 14:39:40;;;;;;;;;;;8.60;99.90;;;;;;4998024;28;19936;-89
2021/12/18 14:42:28;;;;;;;;;;;;;;;;;;;;;
2021/12/18 14:45:08;;;;;;;;;;;8.60;99.90;;;;;;4997945;28;19937;-89
2021/12/18 14:47:52;;;;;;;;;;;8.60;99.90;;;;;;4981292;28;19929;-88
2021/12/18 14:50:45;;;;;;;;;;;8.50;99.90;;;;;;4981549;28;19975;-88
2021/12/18 14:53:29;;;;;;;;;;;8.50;99.90;;;;;;4997749;28;19925;-88
2021/12/18 14:56:22;;;;;;;;;;;8.50;99.90;;;;;;4981974;28;19926;-88
2021/12/18 15:01:54;;;;;;;;;;;8.50;99.90;;;;;;5011314;28;19936;-88
2021/12/18 15:04:50;;;;;;;;;;;8.50;99.90;;;;;;4980873;28;19948;-88
2021/12/18 15:07:42;;;;;;;;;;;8.50;99.90;;;;;;4993047;28;19929;-88
2021/12/18 15:10:43;;;;;;;;;;;;;;;;;;;;;
2021/12/18 15:13:25;;;;;;;;;;;;;;;;;;;;;
2021/12/18 15:19:08;;;;;;;;;;;8.40;99.90;;;;;;4997342;28;20325;-89
2021/12/18 15:22:11;;;;;;;;;;;8.40;99.90;;;;;;4980433;28;19932;-88
2021/12/18 15:24:43;;;;;;;;;;;8.40;99.90;;;;;;4980229;28;19926;-89
2021/12/18 15:27:26;;;;;;;;;;;;;;;;;;;;;
2021/12/18 15:29:55;;;;;;;;;;;8.40;99.90;;;;;;4996902;28;20279;-88
2021/12/18 15:32:31;;;;;;;;;;;;;;;;;;;;;
2021/12/18 15:35:12;;;;;;;;;;;;;;;;;;;;;
2021/12/18 15:38:05;;;;;;;;;;;8.50;99.90;;;;;;4996537;28;19925;-89
2021/12/18 15:41:05;;;;;;;;;;;;;;;;;;;;;
2021/12/18 15:43:54;;;;;;;;;;;8.50;99.90;;;;;;4997065;28;19925;-89
2021/12/18 15:46:29;;;;;;;;;;;8.40;99.90;;;;;;4977142;28;19925;-89
2021/12/18 15:49:05;;;;;;;;;;;;;;;;;;;;;
2021/12/18 15:51:46;;;;;;;;;;;8.40;99.90;;;;;;4996761;28;19925;-89
2021/12/18 15:54:19;;;;;;;;;;;8.50;99.90;;;;;;4980339;28;19980;-89
2021/12/18 15:59:41;;;;;;;;;;;8.40;99.90;;;;;;4994122;28;20016;-89
2021/12/18 16:02:07;;;;;;;;;;;8.40;99.90;;;;;;4980402;28;19952;-89
2021/12/18 16:04:46;;;;;;;;;;;8.40;99.90;;;;;;4995941;28;19933;-89
2021/12/18 16:07:22;;;;;;;;;;;;;;;;;;;;;
2021/12/18 16:10:04;;;;;;;;;;;;;;;;;;;;;
2021/12/18 16:12:32;;;;;;;;;;;8.30;99.90;;;;;;4995543;28;20262;-88
2021/12/18 16:15:04;;;;;;;;;;;8.30;99.90;;;;;;4981417;28;19930;-85
2021/12/18 16:17:30;;;;;;;;;;;8.30;99.90;;;;;;4980333;28;19926;-84